createdAt,value
2022-09-13T00:00:43.010Z,0.00
2022-09-13T00:03:11.201Z,0.00
2022-09-13T00:05:39.796Z,0.47
2022-09-13T00:08:08.304Z,0.30
2022-09-13T00:10:37.387Z,0.90
2022-09-13T00:13:06.964Z,1.55
2022-09-13T00:15:34.540Z,0.40
2022-09-13T00:18:01.986Z,1.20
2022-09-13T00:20:30.159Z,0.10
2022-09-13T00:22:57.511Z,0.25
2022-09-13T00:25:25.068Z,1.23
2022-09-13T00:27:52.456Z,0.00
2022-09-13T00:30:21.212Z,0.00
2022-09-13T00:32:48.568Z,0.00
2022-09-13T00:35:15.985Z,0.82
2022-09-13T00:37:43.361Z,0.60
2022-09-13T00:40:11.599Z,0.00
2022-09-13T00:42:39.073Z,0.20
2022-09-13T00:45:17.078Z,0.57
2022-09-13T00:47:52.496Z,0.00
2022-09-13T00:50:24.277Z,0.25
2022-09-13T00:52:56.011Z,0.00
2022-09-13T00:55:28.766Z,0.00
2022-09-13T00:58:02.779Z,0.30
2022-09-13T01:00:30.414Z,0.00
2022-09-13T01:03:02.926Z,0.00
2022-09-13T01:05:34.722Z,0.10
2022-09-13T01:08:03.110Z,0.00
2022-09-13T01:10:31.692Z,0.10
2022-09-13T01:13:11.130Z,0.00
2022-09-13T01:15:38.537Z,0.00
2022-09-13T01:18:09.373Z,0.00
2022-09-13T01:21:12.584Z,0.00
2022-09-13T01:23:57.649Z,0.55
2022-09-13T01:26:49.359Z,0.00
2022-09-13T01:29:51.019Z,0.10
2022-09-13T01:32:29.920Z,0.55
2022-09-13T01:35:12.859Z,0.00
2022-09-13T01:37:52.877Z,0.38
2022-09-13T01:40:32.911Z,0.10
2022-09-13T01:43:20.571Z,0.05
2022-09-13T01:45:54.683Z,0.55
2022-09-13T01:48:29.761Z,0.28
2022-09-13T01:51:03.908Z,1.17
2022-09-13T01:53:41.242Z,0.30
2022-09-13T01:56:13.316Z,0.00
2022-09-13T01:58:47.879Z,0.00
2022-09-13T02:01:19.032Z,0.00
2022-09-13T02:03:57.484Z,0.63
2022-09-13T02:06:28.795Z,0.08
2022-09-13T02:09:01.556Z,0.30
2022-09-13T02:11:29.735Z,0.15
2022-09-13T02:14:03.097Z,0.00
2022-09-13T02:16:35.377Z,0.43
2022-09-13T02:19:10.286Z,0.00
2022-09-13T02:21:43.780Z,0.00
2022-09-13T02:24:15.604Z,0.10
2022-09-13T02:26:46.800Z,0.47
2022-09-13T02:29:18.097Z,0.00
2022-09-13T02:31:50.711Z,0.00
2022-09-13T02:34:23.276Z,0.55
2022-09-13T02:36:53.859Z,0.00
2022-09-13T02:39:25.360Z,0.00
2022-09-13T02:41:57.654Z,0.00
2022-09-13T02:44:32.122Z,0.10
2022-09-13T02:47:15.313Z,0.00
2022-09-13T02:49:54.490Z,0.00
2022-09-13T02:52:33.784Z,0.00
2022-09-13T02:55:11.828Z,0.10
2022-09-13T02:57:41.629Z,0.00
2022-09-13T03:00:10.407Z,0.00
2022-09-13T03:02:40.556Z,0.00
2022-09-13T03:05:09.699Z,0.00
2022-09-13T03:07:37.041Z,0.00
2022-09-13T03:10:08.722Z,0.00
2022-09-13T03:12:53.855Z,0.00
2022-09-13T03:15:36.380Z,0.00
2022-09-13T03:18:17.091Z,0.40
2022-09-13T03:20:58.201Z,0.00
2022-09-13T03:23:38.202Z,0.00
2022-09-13T03:26:21.157Z,0.00
2022-09-13T03:29:02.407Z,0.00
2022-09-13T03:31:34.693Z,0.00
2022-09-13T03:34:09.773Z,0.00
2022-09-13T03:36:46.550Z,0.00
2022-09-13T03:39:24.400Z,0.00
2022-09-13T03:41:57.172Z,0.00
2022-09-13T03:44:27.773Z,0.08
2022-09-13T03:46:59.383Z,0.00
2022-09-13T03:49:28.685Z,0.00
2022-09-13T03:51:58.070Z,0.00
2022-09-13T03:54:31.594Z,0.00
2022-09-13T03:57:08.368Z,0.00
2022-09-13T03:59:39.034Z,0.05
2022-09-13T04:02:11.641Z,0.00
2022-09-13T04:04:40.414Z,0.00
2022-09-13T04:07:12.057Z,0.00
2022-09-13T04:09:45.844Z,0.00
2022-09-13T04:12:13.834Z,0.28
2022-09-13T04:14:43.105Z,0.00
2022-09-13T04:17:11.682Z,0.00
2022-09-13T04:19:39.247Z,0.00
2022-09-13T04:22:09.489Z,0.68
2022-09-13T04:24:38.784Z,0.00
2022-09-13T04:27:08.968Z,0.03
2022-09-13T04:29:38.383Z,0.00
2022-09-13T04:32:06.077Z,0.00
2022-09-13T04:34:34.221Z,0.10
2022-09-13T04:37:18.363Z,0.05
2022-09-13T04:39:47.398Z,0.00
2022-09-13T04:42:14.856Z,0.20
2022-09-13T04:44:42.547Z,0.00
2022-09-13T04:47:10.500Z,0.00
2022-09-13T04:49:38.191Z,0.00
2022-09-13T04:52:05.633Z,0.13
2022-09-13T04:54:33.106Z,0.00
2022-09-13T04:57:01.816Z,0.00
2022-09-13T04:59:29.175Z,0.00
2022-09-13T05:01:56.743Z,0.00
2022-09-13T05:04:24.168Z,0.13
2022-09-13T05:06:52.391Z,0.00
2022-09-13T05:09:20.934Z,0.20
2022-09-13T05:11:48.625Z,1.00
2022-09-13T05:14:17.374Z,1.20
2022-09-13T05:16:44.964Z,1.20
2022-09-13T05:19:13.353Z,0.08
2022-09-13T05:21:41.485Z,0.00
2022-09-13T05:24:09.427Z,0.00
2022-09-13T05:26:36.788Z,0.00
2022-09-13T05:29:04.922Z,0.00
2022-09-13T05:31:35.782Z,0.00
2022-09-13T05:34:06.095Z,0.00
2022-09-13T05:36:36.355Z,0.00
2022-09-13T05:39:31.911Z,0.00
2022-09-13T05:41:52.104Z,0.00
2022-09-13T05:44:19.500Z,0.00
2022-09-13T05:46:48.949Z,0.00
2022-09-13T05:49:16.734Z,0.00
2022-09-13T05:51:44.172Z,0.00
2022-09-13T05:54:13.329Z,0.00
2022-09-13T05:56:40.751Z,0.00
2022-09-13T05:59:09.062Z,0.00
2022-09-13T06:01:36.660Z,0.00
2022-09-13T06:04:05.425Z,0.00
2022-09-13T06:06:32.808Z,0.00
2022-09-13T06:09:00.157Z,0.00
2022-09-13T06:11:27.901Z,0.10
2022-09-13T06:13:55.344Z,1.90
2022-09-13T06:16:22.915Z,0.00
2022-09-13T06:18:50.850Z,0.00
2022-09-13T06:21:24.633Z,0.28
2022-09-13T06:23:55.013Z,0.00
2022-09-13T06:26:24.368Z,1.92
2022-09-13T06:28:54.822Z,0.00
2022-09-13T06:31:24.796Z,0.00
2022-09-13T06:33:57.523Z,0.10
2022-09-13T06:36:26.657Z,0.00
2022-09-13T06:38:54.332Z,0.03
2022-09-13T06:41:23.190Z,0.38
2022-09-13T06:43:54.889Z,0.22
2022-09-13T06:46:25.201Z,0.00
2022-09-13T06:48:55.852Z,0.00
2022-09-13T06:51:27.193Z,0.10
2022-09-13T06:53:58.261Z,0.00
2022-09-13T06:56:28.512Z,0.00
2022-09-13T06:58:57.832Z,0.10
2022-09-13T07:01:27.304Z,0.32
2022-09-13T07:03:58.543Z,0.00
2022-09-13T07:06:30.218Z,0.08
2022-09-13T07:08:59.818Z,0.55
2022-09-13T07:11:30.241Z,0.00
2022-09-13T07:13:59.420Z,0.57
2022-09-13T07:16:28.732Z,0.22
2022-09-13T07:19:00.184Z,0.25
2022-09-13T07:21:29.830Z,0.00
2022-09-13T07:24:00.353Z,0.00
2022-09-13T07:26:29.018Z,0.00
2022-09-13T07:29:00.730Z,0.20
2022-09-13T07:31:30.377Z,0.00
2022-09-13T07:33:59.741Z,0.28
2022-09-13T07:36:29.778Z,0.00
2022-09-13T07:38:58.378Z,0.00
2022-09-13T07:41:27.634Z,0.20
2022-09-13T07:43:58.006Z,0.57
2022-09-13T07:46:28.566Z,1.65
2022-09-13T07:48:57.682Z,1.00
2022-09-13T07:51:26.680Z,1.05
2022-09-13T07:53:57.861Z,0.15
2022-09-13T07:56:27.851Z,0.22
2022-09-13T07:58:55.959Z,2.05
2022-09-13T08:01:26.084Z,0.50
2022-09-13T08:03:56.478Z,0.43
2022-09-13T08:06:26.259Z,0.35
2022-09-13T08:08:55.631Z,1.00
2022-09-13T08:11:25.099Z,0.20
2022-09-13T08:13:53.904Z,0.00
2022-09-13T08:16:23.257Z,0.80
2022-09-13T08:18:52.771Z,0.40
2022-09-13T08:21:20.751Z,0.22
2022-09-13T08:23:48.725Z,0.13
2022-09-13T08:26:18.263Z,0.70
2022-09-13T08:28:45.699Z,0.63
2022-09-13T08:31:17.272Z,1.90
2022-09-13T08:33:48.179Z,1.35
2022-09-13T08:36:24.309Z,0.38
2022-09-13T08:38:56.964Z,0.32
2022-09-13T08:41:55.022Z,0.20
2022-09-13T08:44:31.656Z,0.65
2022-09-13T08:47:19.439Z,1.13
2022-09-13T08:49:53.729Z,2.15
2022-09-13T08:52:30.456Z,2.42
2022-09-13T08:55:20.869Z,1.73
2022-09-13T09:01:40.140Z,1.42
2022-09-13T09:04:41.017Z,0.55
2022-09-13T09:07:14.611Z,1.70
2022-09-13T09:09:47.622Z,1.10
2022-09-13T09:12:34.395Z,1.52
2022-09-13T09:15:16.967Z,1.38
2022-09-13T09:18:15.411Z,0.38
2022-09-13T09:20:50.494Z,0.32
2022-09-13T09:23:22.569Z,1.33
2022-09-13T09:25:53.857Z,1.00
2022-09-13T09:28:21.445Z,1.23
2022-09-13T09:31:10.256Z,1.38
2022-09-13T09:33:53.562Z,1.50
2022-09-13T09:36:29.956Z,1.17
2022-09-13T09:38:57.996Z,1.55
2022-09-13T09:41:30.105Z,1.63
2022-09-13T09:44:02.698Z,0.40
2022-09-13T09:46:34.400Z,1.40
2022-09-13T09:49:34.778Z,3.05
2022-09-13T09:52:07.317Z,1.13
2022-09-13T09:54:41.552Z,1.98
2022-09-13T09:57:09.393Z,1.48
2022-09-13T09:59:44.357Z,1.60
2022-09-13T10:02:20.719Z,2.05
2022-09-13T10:05:04.021Z,3.47
2022-09-13T10:10:04.465Z,3.20
2022-09-13T10:12:35.221Z,1.60
2022-09-13T10:15:07.723Z,0.20
2022-09-13T10:17:36.905Z,2.42
2022-09-13T10:20:23.315Z,2.17
2022-09-13T10:23:12.972Z,0.32
2022-09-13T10:25:45.891Z,1.20
2022-09-13T10:28:19.012Z,1.65
2022-09-13T10:30:49.924Z,1.88
2022-09-13T10:33:27.988Z,1.45
2022-09-13T10:36:02.588Z,2.00
2022-09-13T10:38:36.992Z,2.90
2022-09-13T10:41:11.390Z,3.22
2022-09-13T10:43:44.525Z,2.03
2022-09-13T10:46:17.483Z,3.25
2022-09-13T10:48:55.802Z,2.65
2022-09-13T10:51:35.696Z,1.65
2022-09-13T10:54:24.532Z,1.52
2022-09-13T10:56:52.749Z,0.20
2022-09-13T10:59:25.873Z,1.27
2022-09-13T11:02:28.110Z,1.50
2022-09-13T11:05:10.366Z,1.52
2022-09-13T11:07:53.659Z,3.00
2022-09-13T11:10:29.152Z,1.65
2022-09-13T11:13:08.136Z,0.77
2022-09-13T11:15:56.925Z,2.85
2022-09-13T11:18:58.817Z,2.10
2022-09-13T11:21:46.176Z,2.42
2022-09-13T11:24:40.984Z,4.20
2022-09-13T11:27:18.326Z,1.73
2022-09-13T11:30:03.268Z,6.68
2022-09-13T11:32:47.496Z,2.00
2022-09-13T11:35:33.000Z,1.45
2022-09-13T11:38:16.360Z,0.98
2022-09-13T11:40:53.649Z,1.38
2022-09-13T11:43:44.845Z,2.35
2022-09-13T11:46:20.569Z,1.45
2022-09-13T11:49:27.794Z,2.40
2022-09-13T11:52:08.089Z,2.28
2022-09-13T11:54:58.102Z,1.42
2022-09-13T11:57:30.701Z,1.10
2022-09-13T12:00:02.822Z,1.75
2022-09-13T12:02:47.847Z,2.45
2022-09-13T12:05:23.174Z,2.78
2022-09-13T12:07:59.764Z,1.65
2022-09-13T12:10:35.565Z,1.25
2022-09-13T12:13:05.567Z,2.55
2022-09-13T12:15:39.909Z,2.15
2022-09-13T12:18:17.310Z,1.70
2022-09-13T12:20:51.371Z,1.80
2022-09-13T12:23:23.448Z,2.47
2022-09-13T12:25:59.408Z,0.80
2022-09-13T12:28:30.675Z,2.40
2022-09-13T12:31:03.200Z,3.03
2022-09-13T12:33:30.931Z,0.20
2022-09-13T12:36:18.073Z,0.20
2022-09-13T12:39:09.980Z,0.98
2022-09-13T12:41:53.723Z,0.68
2022-09-13T12:44:39.075Z,2.88
2022-09-13T12:47:35.916Z,3.10
2022-09-13T12:53:23.401Z,2.17
2022-09-13T12:56:02.118Z,0.00
2022-09-13T12:59:04.209Z,1.45
2022-09-13T13:01:33.850Z,0.47
2022-09-13T13:04:05.524Z,1.08
2022-09-13T13:06:36.755Z,3.13
2022-09-13T13:09:08.680Z,0.65
2022-09-13T13:11:46.371Z,0.65
2022-09-13T13:14:48.837Z,1.65
2022-09-13T13:17:45.740Z,0.75
2022-09-13T13:20:48.834Z,1.40
2022-09-13T13:23:24.513Z,0.40
2022-09-13T13:26:11.231Z,0.80
2022-09-13T13:29:15.716Z,1.67
2022-09-13T13:31:47.572Z,2.28
2022-09-13T13:34:37.868Z,2.08
2022-09-13T13:37:23.477Z,2.55
2022-09-13T13:40:13.050Z,2.13
2022-09-13T13:42:41.596Z,0.85
2022-09-13T13:45:28.085Z,1.65
2022-09-13T13:48:13.064Z,3.53
2022-09-13T13:51:15.220Z,1.30
2022-09-13T13:53:45.805Z,1.88
2022-09-13T13:56:37.368Z,1.15
2022-09-13T13:59:13.367Z,1.55
2022-09-13T14:01:46.425Z,2.28
2022-09-13T14:04:40.751Z,1.92
2022-09-13T14:07:20.627Z,3.22
2022-09-13T14:09:57.323Z,0.77
2022-09-13T14:12:44.645Z,1.38
2022-09-13T14:15:26.360Z,1.08
2022-09-13T14:18:14.689Z,0.45
2022-09-13T14:21:05.481Z,1.67
2022-09-13T14:23:33.298Z,1.10
2022-09-13T14:26:01.915Z,0.63
2022-09-13T14:28:33.091Z,0.80
2022-09-13T14:31:00.779Z,2.63
2022-09-13T14:33:34.928Z,0.52
2022-09-13T14:36:07.187Z,3.10
2022-09-13T14:38:36.321Z,0.88
2022-09-13T14:41:14.465Z,0.82
2022-09-13T14:43:43.246Z,0.35
2022-09-13T14:46:16.122Z,3.50
2022-09-13T14:48:51.333Z,1.17
2022-09-13T14:51:23.865Z,1.38
2022-09-13T14:53:53.973Z,1.00
2022-09-13T14:56:33.550Z,2.22
2022-09-13T14:59:06.542Z,1.23
2022-09-13T15:01:36.591Z,1.80
2022-09-13T15:04:05.823Z,1.67
2022-09-13T15:06:38.109Z,2.55
2022-09-13T15:09:18.459Z,1.40
2022-09-13T15:11:58.372Z,1.55
2022-09-13T15:14:28.768Z,0.55
2022-09-13T15:17:01.662Z,0.77
2022-09-13T15:19:37.526Z,1.40
2022-09-13T15:22:14.065Z,1.50
2022-09-13T15:24:47.136Z,1.70
2022-09-13T15:27:25.326Z,1.38
2022-09-13T15:29:55.418Z,1.45
2022-09-13T15:32:25.955Z,0.40
2022-09-13T15:34:53.294Z,0.32
2022-09-13T15:37:36.888Z,0.88
2022-09-13T15:40:22.802Z,0.82
2022-09-13T15:42:52.583Z,0.00
2022-09-13T15:45:21.320Z,0.47
2022-09-13T15:47:50.021Z,0.70
2022-09-13T15:50:26.805Z,1.80
2022-09-13T15:52:56.319Z,1.13
2022-09-13T15:55:23.991Z,0.50
2022-09-13T15:57:51.705Z,0.77
2022-09-13T16:00:22.258Z,0.50
2022-09-13T16:02:49.924Z,0.08
2022-09-13T16:05:17.462Z,1.50
2022-09-13T16:07:45.150Z,1.20
2022-09-13T16:10:18.304Z,1.25
2022-09-13T16:12:45.841Z,0.80
2022-09-13T16:15:13.656Z,0.57
2022-09-13T16:17:41.728Z,0.40
2022-09-13T16:20:13.207Z,0.10
2022-09-13T16:22:40.632Z,0.75
2022-09-13T16:25:09.461Z,0.20
2022-09-13T16:27:38.189Z,0.68
2022-09-13T16:30:06.622Z,0.77
2022-09-13T16:32:34.019Z,0.10
2022-09-13T16:35:01.384Z,1.02
2022-09-13T16:37:28.925Z,0.28
2022-09-13T16:39:57.942Z,1.25
2022-09-13T16:42:25.756Z,0.45
2022-09-13T16:44:54.428Z,2.75
2022-09-13T16:47:21.809Z,0.10
2022-09-13T16:49:49.166Z,1.00
2022-09-13T16:52:16.543Z,0.43
2022-09-13T16:54:46.220Z,0.00
2022-09-13T16:57:13.956Z,0.00
2022-09-13T16:59:42.165Z,0.00
2022-09-13T17:02:12.654Z,0.00
2022-09-13T17:04:41.460Z,0.10
2022-09-13T17:07:08.979Z,0.00
2022-09-13T17:09:37.975Z,0.08
2022-09-13T17:12:06.092Z,0.03
2022-09-13T17:14:33.764Z,1.00
2022-09-13T17:17:01.843Z,0.00
2022-09-13T17:19:34.364Z,1.13
2022-09-13T17:22:03.237Z,0.10
2022-09-13T17:24:31.594Z,0.30
2022-09-13T17:27:00.012Z,0.00
2022-09-13T17:29:30.748Z,0.20
2022-09-13T17:31:58.120Z,1.85
2022-09-13T17:34:25.524Z,0.17
2022-09-13T17:36:54.600Z,0.00
2022-09-13T17:39:22.250Z,0.40
2022-09-13T17:41:49.740Z,0.00
2022-09-13T17:44:17.143Z,0.00
2022-09-13T17:46:45.090Z,0.00
2022-09-13T17:49:12.586Z,0.00
2022-09-13T17:51:40.028Z,0.00
2022-09-13T17:54:10.536Z,0.00
2022-09-13T17:56:39.728Z,0.45
2022-09-13T17:59:10.401Z,0.00
2022-09-13T18:01:39.670Z,0.00
2022-09-13T18:04:07.712Z,0.00
2022-09-13T18:06:35.420Z,0.00
2022-09-13T18:09:02.854Z,0.10
2022-09-13T18:11:31.541Z,0.00
2022-09-13T18:13:58.903Z,0.15
2022-09-13T18:16:28.421Z,0.00
2022-09-13T18:18:56.436Z,0.43
2022-09-13T18:21:25.650Z,0.00
2022-09-13T18:23:54.648Z,0.00
2022-09-13T18:26:24.412Z,0.00
2022-09-13T18:28:56.975Z,0.00
2022-09-13T18:31:25.585Z,0.00
2022-09-13T18:33:55.930Z,0.00
2022-09-13T18:36:23.585Z,0.20
2022-09-13T18:38:51.534Z,0.68
2022-09-13T18:41:20.688Z,0.20
2022-09-13T18:43:54.889Z,0.00
2022-09-13T18:46:25.812Z,0.00
2022-09-13T18:48:54.619Z,0.00
2022-09-13T18:51:23.406Z,0.00
2022-09-13T18:53:51.488Z,0.00
2022-09-13T18:56:21.111Z,0.00
2022-09-13T18:58:48.732Z,0.00
2022-09-13T19:01:18.846Z,0.00
2022-09-13T19:03:51.914Z,0.30
2022-09-13T19:06:23.135Z,0.00
2022-09-13T19:08:52.270Z,0.00
2022-09-13T19:11:44.669Z,0.10
2022-09-13T19:14:10.157Z,0.00
2022-09-13T19:16:37.749Z,0.20
2022-09-13T19:19:06.532Z,0.28
2022-09-13T19:21:34.218Z,0.00
2022-09-13T19:24:06.462Z,0.00
2022-09-13T19:26:38.236Z,0.00
2022-09-13T19:29:07.110Z,0.00
2022-09-13T19:31:36.633Z,0.00
2022-09-13T19:34:06.322Z,0.00
2022-09-13T19:36:35.534Z,0.00
2022-09-13T19:39:05.259Z,0.00
2022-09-13T19:41:33.431Z,0.00
2022-09-13T19:44:04.638Z,0.00
2022-09-13T19:46:34.094Z,0.00
2022-09-13T19:49:03.267Z,0.00
2022-09-13T19:51:34.613Z,0.00
2022-09-13T19:54:02.302Z,0.00
2022-09-13T19:56:32.481Z,0.00
2022-09-13T19:59:01.785Z,0.00
2022-09-13T20:01:31.801Z,0.00
2022-09-13T20:04:02.201Z,0.00
2022-09-13T20:06:34.679Z,0.00
2022-09-13T20:09:03.249Z,0.00
2022-09-13T20:11:31.367Z,0.00
2022-09-13T20:13:59.421Z,0.00
2022-09-13T20:16:29.410Z,0.00
2022-09-13T20:18:57.991Z,0.00
2022-09-13T20:21:26.759Z,0.00
2022-09-13T20:23:57.494Z,0.00
2022-09-13T20:26:26.336Z,0.05
2022-09-13T20:28:55.868Z,0.00
2022-09-13T20:31:24.421Z,0.00
2022-09-13T20:33:55.217Z,0.10
2022-09-13T20:36:22.963Z,0.00
2022-09-13T20:38:52.626Z,0.10
2022-09-13T20:41:22.319Z,0.00
2022-09-13T20:43:50.053Z,0.10
2022-09-13T20:46:18.922Z,0.00
2022-09-13T20:48:46.532Z,0.10
2022-09-13T20:51:16.269Z,0.00
2022-09-13T20:53:44.346Z,0.00
2022-09-13T20:56:14.058Z,0.00
2022-09-13T20:58:46.594Z,0.03
2022-09-13T21:01:20.066Z,0.00
2022-09-13T21:03:49.623Z,0.00
2022-09-13T21:06:17.539Z,0.00
2022-09-13T21:08:44.807Z,0.05
2022-09-13T21:11:13.945Z,0.03
2022-09-13T21:13:44.879Z,0.00
2022-09-13T21:16:14.235Z,0.00
2022-09-13T21:18:42.130Z,0.00
2022-09-13T21:21:11.880Z,0.00
2022-09-13T21:23:41.684Z,0.00
2022-09-13T21:26:11.703Z,0.00
2022-09-13T21:28:40.684Z,0.00
2022-09-13T21:31:12.649Z,0.08
2022-09-13T21:33:40.844Z,0.00
2022-09-13T21:36:10.657Z,0.05
2022-09-13T21:38:38.896Z,0.00
2022-09-13T21:41:08.600Z,0.00
2022-09-13T21:43:36.089Z,0.00
2022-09-13T21:46:05.612Z,0.00
2022-09-13T21:48:35.967Z,0.00
2022-09-13T21:51:05.863Z,0.00
2022-09-13T21:53:36.332Z,0.00
2022-09-13T21:56:05.336Z,0.00
2022-09-13T21:58:33.272Z,0.00
2022-09-13T22:01:04.444Z,0.00
2022-09-13T22:03:35.222Z,0.00
2022-09-13T22:06:03.287Z,0.00
2022-09-13T22:08:32.448Z,0.00
2022-09-13T22:11:05.069Z,0.00
2022-09-13T22:13:34.257Z,0.00
2022-09-13T22:16:07.118Z,0.00
2022-09-13T22:18:36.911Z,0.00
2022-09-13T22:21:08.750Z,0.00
2022-09-13T22:23:36.711Z,0.00
2022-09-13T22:26:06.464Z,0.00
2022-09-13T22:28:33.884Z,0.73
2022-09-13T22:31:05.430Z,0.00
2022-09-13T22:33:33.475Z,0.00
2022-09-13T22:36:04.413Z,0.00
2022-09-13T22:38:31.997Z,0.00
2022-09-13T22:41:01.987Z,0.00
2022-09-13T22:43:29.694Z,0.00
2022-09-13T22:46:03.336Z,0.00
2022-09-13T22:48:31.176Z,0.00
2022-09-13T22:50:59.137Z,0.00
2022-09-13T22:53:29.616Z,0.00
2022-09-13T22:55:56.961Z,0.47
2022-09-13T22:58:24.421Z,0.00
2022-09-13T23:00:51.884Z,0.00
2022-09-13T23:03:19.354Z,0.05
2022-09-13T23:05:52.975Z,0.22
2022-09-13T23:08:20.331Z,0.00
2022-09-13T23:10:51.545Z,0.00
2022-09-13T23:13:18.984Z,0.00
2022-09-13T23:15:46.452Z,0.00
2022-09-13T23:18:14.091Z,0.00
2022-09-13T23:20:42.761Z,0.00
2022-09-13T23:23:11.741Z,0.17
2022-09-13T23:25:39.130Z,0.10
2022-09-13T23:28:07.796Z,1.75
2022-09-13T23:30:35.374Z,0.10
2022-09-13T23:33:02.741Z,0.00
2022-09-13T23:35:30.091Z,0.45
2022-09-13T23:37:57.485Z,0.00
2022-09-13T23:40:24.902Z,0.00
2022-09-13T23:42:52.315Z,0.20
2022-09-13T23:45:21.577Z,0.00
2022-09-13T23:47:49.069Z,0.00
2022-09-13T23:50:18.701Z,0.00
2022-09-13T23:52:46.123Z,0.20
2022-09-13T23:55:14.162Z,0.22
2022-09-13T23:57:41.548Z,0.45
